Terminal Aerodrome Forecast
Issued by NWS

Home | Current Version | Previous Version | Text Only | Print | Product List | Glossary Off
Versions: 1 2 3 4 5 6 7 8 9 10 11 12 13 14 15 16 17 18 19 20 21 22

000
FTUS45 KGGW 021100
TAFSDY
TAF
KSDY 021134Z 0212/0312 29007KT P6SM SCT015
     FM021500 34008KT P6SM SCT020
     FM021800 34010KT P6SM BKN060
     FM030000 35008KT P6SM SCT130
     FM030300 VRB03KT P6SM SCT190
      AMD LTD TO CLD VIS AND WIND=

USA.gov is the U.S. government's official web portal to all federal, state and local government web resources and services.